Time;durP1;ratioP1;P1;durP2;ratioP2;P2;SDS_P1;SDS_P2;PMS_P1;PMS_P2;Temp;Humidity;BMP_temperature;BMP_pressure;BME280_temperature;BME280_humidity;BME280_pressure;Samples;Min_cycle;Max_cycle;Signal;HPM_P1;HPM_P2
2024/01/09 00:02:31;;;;;;;13.43;6.67;;;-2.90;99.90;;;;;;6255199;23;20000;-80
2024/01/09 00:05:01;;;;;;;15.60;6.67;;;;;;;;;;6251800;23;20066;-80
2024/01/09 00:07:27;;;;;;;16.00;7.50;;;;;;;;;;6245838;22;20000;-80
2024/01/09 00:09:59;;;;;;;13.20;6.30;;;-3.10;99.90;;;;;;6272907;22;19989;-82
2024/01/09 00:12:38;;;;;;;14.53;6.40;;;;;;;;;;6239950;23;20073;-81
2024/01/09 00:15:06;;;;;;;11.67;6.07;;;;;;;;;;6252109;23;20087;-80
2024/01/09 00:17:35;;;;;;;12.48;6.80;;;;;;;;;;6249477;23;20408;-81
2024/01/09 00:20:04;;;;;;;10.60;5.43;;;;;;;;;;6223129;23;20028;-80
2024/01/09 00:22:31;;;;;;;14.32;6.47;;;;;;;;;;6222763;23;19996;-81
2024/01/09 00:25:03;;;;;;;16.85;7.30;;;;;;;;;;6224712;23;20040;-81
2024/01/09 00:27:34;;;;;;;16.70;7.10;;;;;;;;;;6228605;23;20007;-81
2024/01/09 00:30:03;;;;;;;14.13;6.43;;;;;;;;;;6257273;23;20052;-81
2024/01/09 00:32:33;;;;;;;13.50;6.63;;;;;;;;;;6252189;23;20382;-81
2024/01/09 00:35:03;;;;;;;13.83;6.77;;;;;;;;;;6249800;23;20004;-82
2024/01/09 00:37:42;;;;;;;;;;;;;;;;;;;;;
2024/01/09 00:40:20;;;;;;;15.50;6.77;;;;;;;;;;6250642;23;20128;-80
2024/01/09 00:42:49;;;;;;;13.97;6.13;;;;;;;;;;6248757;23;20000;-81
2024/01/09 00:45:33;;;;;;;14.10;6.67;;;-3.10;99.90;;;;;;6221845;23;19996;-81
2024/01/09 00:48:19;;;;;;;14.03;6.33;;;-3.00;99.90;;;;;;6237259;23;20000;-81
2024/01/09 00:50:57;;;;;;;13.73;6.27;;;;;;;;;;6247393;23;20012;-82
2024/01/09 00:53:25;;;;;;;14.67;5.87;;;;;;;;;;6222955;23;20000;-82
2024/01/09 00:56:02;;;;;;;16.43;6.57;;;;;;;;;;6224492;23;20008;-81
2024/01/09 00:58:32;;;;;;;15.37;6.87;;;;;;;;;;6250449;23;20034;-81
2024/01/09 01:00:59;;;;;;;14.83;6.73;;;-2.90;99.90;;;;;;6249645;23;20007;-80
2024/01/09 01:03:42;;;;;;;14.80;7.27;;;-3.00;99.90;;;;;;6225115;23;20008;-81
2024/01/09 01:06:17;;;;;;;16.00;7.47;;;-3.10;99.90;;;;;;6236220;23;20004;-82
2024/01/09 01:08:47;;;;;;;14.67;6.87;;;-3.20;99.90;;;;;;6248223;22;20028;-79
2024/01/09 01:11:14;;;;;;;13.23;6.27;;;-3.20;99.90;;;;;;6272942;22;20078;-82
2024/01/09 01:13:54;;;;;;;16.17;6.73;;;-3.20;99.90;;;;;;6228943;23;20008;-80
2024/01/09 01:16:20;;;;;;;15.65;6.68;;;-3.20;99.90;;;;;;6226210;23;20019;-80
2024/01/09 01:18:50;;;;;;;14.43;7.00;;;;;;;;;;6250900;23;20115;-81
2024/01/09 01:21:17;;;;;;;15.27;7.00;;;;;;;;;;6224066;23;20078;-80
2024/01/09 01:23:48;;;;;;;16.47;6.80;;;-3.30;99.90;;;;;;6221351;23;20004;-80
2024/01/09 01:26:15;;;;;;;16.70;7.60;;;;;;;;;;6223913;23;20015;-81
2024/01/09 01:28:59;;;;;;;18.10;8.03;;;-3.30;99.90;;;;;;6243731;23;20008;-80
2024/01/09 01:31:32;;;;;;;16.37;7.50;;;;;;;;;;6240864;23;20024;-80
2024/01/09 01:34:04;;;;;;;13.90;6.77;;;-3.50;99.90;;;;;;6196839;23;20017;-80
2024/01/09 01:36:39;;;;;;;12.47;5.97;;;;;;;;;;6234087;23;20011;-82
2024/01/09 01:39:07;;;;;;;17.83;7.47;;;;;;;;;;6224560;23;20012;-80
2024/01/09 01:41:35;;;;;;;13.53;6.70;;;-3.20;99.90;;;;;;6256026;23;20000;-80
2024/01/09 01:44:19;;;;;;;15.17;7.33;;;-3.30;99.90;;;;;;6200084;23;20095;-79
2024/01/09 01:46:49;;;;;;;16.77;7.00;;;;;;;;;;6226567;23;20391;-81
2024/01/09 01:49:17;;;;;;;12.47;6.40;;;;;;;;;;6230811;23;20083;-80
2024/01/09 01:51:49;;;;;;;14.47;6.73;;;-3.30;99.90;;;;;;6231099;23;20235;-81
2024/01/09 01:57:48;;;;;;;14.83;6.60;;;-3.30;99.90;;;;;;6257129;23;20014;-81
2024/01/09 02:00:20;;;;;;;16.00;7.50;;;-3.40;99.90;;;;;;6252418;23;20293;-81
2024/01/09 02:02:53;;;;;;;17.70;7.80;;;-3.50;99.90;;;;;;6228435;23;20015;-81
2024/01/09 02:05:24;;;;;;;16.77;7.00;;;-3.50;99.90;;;;;;6220869;23;20012;-81
2024/01/09 02:08:01;;;;;;;17.27;7.57;;;-3.50;99.90;;;;;;6228244;23;20011;-81
2024/01/09 02:10:28;;;;;;;15.33;6.90;;;;;;;;;;6245338;23;20008;-81
2024/01/09 02:12:56;;;;;;;20.10;7.20;;;;;;;;;;6267256;23;20000;-81
2024/01/09 02:15:23;;;;;;;15.97;6.80;;;;;;;;;;6235988;23;20027;-80
2024/01/09 02:17:50;;;;;;;15.63;7.20;;;;;;;;;;6257993;23;20042;-81
2024/01/09 02:20:35;;;;;;;14.07;7.00;;;-3.50;99.90;;;;;;6253832;23;20015;-82
2024/01/09 02:23:05;;;;;;;17.43;6.73;;;;;;;;;;6202222;23;20011;-80
2024/01/09 02:25:34;;;;;;;14.18;6.55;;;;;;;;;;6251794;23;20005;-81
2024/01/09 02:28:34;;;;;;;13.63;7.10;;;-3.40;99.90;;;;;;6225994;23;20000;-80
2024/01/09 02:31:14;;;;;;;13.63;6.93;;;-3.40;99.90;;;;;;6248270;22;20000;-82
2024/01/09 02:33:52;;;;;;;17.10;7.37;;;-3.60;99.90;;;;;;6271819;22;20203;-83
2024/01/09 02:36:23;;;;;;;16.33;6.03;;;;;;;;;;6273765;23;20039;-82
2024/01/09 02:39:13;;;;;;;12.02;5.25;;;;;;;;;;6258939;23;20004;-81
2024/01/09 02:41:50;;;;;;;14.37;5.70;;;;;;;;;;6226769;23;19996;-81
2024/01/09 02:44:59;;;;;;;13.40;6.23;;;-4.30;99.90;;;;;;6248895;23;20027;-80
2024/01/09 02:47:53;;;;;;;17.55;6.40;;;-3.60;99.90;;;;;;6204544;23;20103;-80
2024/01/09 02:50:22;;;;;;;15.70;7.20;;;;;;;;;;6252085;23;20015;-81
2024/01/09 02:52:54;;;;;;;14.33;6.50;;;-3.60;99.90;;;;;;6196866;23;20008;-82
2024/01/09 02:56:00;;;;;;;13.63;6.73;;;-3.50;99.90;;;;;;6254266;22;19988;-81
2024/01/09 02:58:33;;;;;;;15.33;7.37;;;-3.60;99.90;;;;;;6248524;22;20012;-82
2024/01/09 03:01:07;;;;;;;15.17;6.87;;;-3.60;99.90;;;;;;6222379;23;20035;-80
2024/01/09 04:18:40;;;;;;;14.53;6.53;;;;;;;;;;6277257;22;20030;-81
2024/01/09 04:21:15;;;;;;;16.70;7.07;;;-3.40;99.90;;;;;;6218822;23;20001;-80
2024/01/09 04:24:19;;;;;;;16.40;6.17;;;-3.10;99.90;;;;;;6244008;22;20313;-80
2024/01/09 04:26:47;;;;;;;15.73;6.53;;;-3.70;99.90;;;;;;6251461;22;20018;-81
2024/01/09 04:29:15;;;;;;;15.13;7.50;;;-3.70;99.90;;;;;;6252771;22;20067;-80
2024/01/09 04:31:46;;;;;;;13.80;6.50;;;-3.70;99.90;;;;;;6253131;22;20039;-79
2024/01/09 04:34:22;;;;;;;18.00;6.90;;;-2.40;99.90;;;;;;6281213;22;20014;-80
2024/01/09 04:37:17;;;;;;;15.77;6.67;;;-3.60;99.90;;;;;;6262933;22;20011;-80
2024/01/09 04:39:54;;;;;;;13.47;4.93;;;-3.80;99.90;;;;;;6268778;22;20102;-80
2024/01/09 04:42:43;;;;;;;16.20;6.27;;;-3.40;99.90;;;;;;6267574;22;20007;-80
2024/01/09 04:45:16;;;;;;;16.37;6.80;;;-4.20;99.90;;;;;;6244616;22;20423;-80
2024/01/09 04:47:43;;;;;;;17.40;6.80;;;-3.50;99.90;;;;;;6246737;22;20004;-81
2024/01/09 04:50:10;;;;;;;14.27;6.70;;;-2.50;99.90;;;;;;6253615;22;20347;-80
2024/01/09 04:53:07;;;;;;;13.37;6.40;;;-4.00;99.90;;;;;;6279650;22;20062;-81
2024/01/09 04:55:35;;;;;;;15.77;6.33;;;-3.70;99.90;;;;;;6281006;22;20444;-79
2024/01/09 04:58:12;;;;;;;16.20;6.83;;;-3.70;99.90;;;;;;6282455;22;20016;-80
2024/01/09 05:00:39;;;;;;;17.40;7.30;;;-6.00;99.90;;;;;;6248026;22;20107;-80
2024/01/09 05:03:07;;;;;;;15.57;6.50;;;-3.80;99.90;;;;;;6228931;22;20071;-80
2024/01/09 05:05:34;;;;;;;11.77;5.70;;;;;;;;;;6254437;22;20394;-82
2024/01/09 05:08:45;;;;;;;13.17;5.97;;;-3.60;99.90;;;;;;6275034;22;20052;-82
2024/01/09 05:11:27;;;;;;;15.55;6.22;;;-5.80;99.90;;;;;;6277509;22;19984;-81
2024/01/09 05:14:00;;;;;;;13.30;6.73;;;-3.00;99.90;;;;;;6264831;22;20329;-81
2024/01/09 05:16:30;;;;;;;16.37;6.03;;;-3.80;99.90;;;;;;6293369;22;20011;-83
2024/01/09 05:18:59;;;;;;;15.90;6.25;;;-3.80;99.90;;;;;;6306104;22;20007;-80
2024/01/09 05:21:35;;;;;;;14.10;6.27;;;-5.10;99.90;;;;;;6278539;22;20010;-82
2024/01/09 05:24:03;;;;;;;14.03;6.17;;;-4.90;99.90;;;;;;6306113;22;19992;-81
2024/01/09 05:27:00;;;;;;;14.25;6.15;;;-1.40;99.90;;;;;;6287823;22;20026;-81
2024/01/09 05:29:27;;;;;;;14.00;6.83;;;;;;;;;;6280474;22;20008;-81
2024/01/09 05:31:59;;;;;;;15.43;6.53;;;-3.70;99.90;;;;;;6282175;22;20004;-80
2024/01/09 05:34:44;;;;;;;14.88;6.78;;;-2.60;99.90;;;;;;6230135;22;20086;-80
2024/01/09 05:37:44;;;;;;;14.33;6.53;;;-3.50;99.90;;;;;;6283030;22;20485;-80
2024/01/09 05:40:31;;;;;;;14.27;5.97;;;-4.30;99.90;;;;;;6256480;22;20411;-81
2024/01/09 05:43:00;;;;;;;12.90;5.77;;;;;;;;;;6284241;22;20007;-81
2024/01/09 05:45:31;;;;;;;14.40;5.70;;;-3.70;99.90;;;;;;6257108;22;20011;-81
2024/01/09 05:48:29;;;;;;;13.02;6.00;;;-3.80;99.90;;;;;;6256605;22;19995;-81
2024/01/09 05:51:02;;;;;;;12.77;5.23;;;-3.60;99.90;;;;;;6286218;22;20338;-81
2024/01/09 05:53:29;;;;;;;14.53;6.03;;;-2.50;99.90;;;;;;6265131;22;20004;-81
2024/01/09 05:56:00;;;;;;;14.60;5.87;;;-3.70;99.90;;;;;;6304648;22;20011;-81
2024/01/09 05:58:26;;;;;;;13.30;5.87;;;;;;;;;;6299657;22;20003;-80
2024/01/09 06:01:03;;;;;;;13.67;5.90;;;-3.70;99.90;;;;;;6287115;22;20010;-81
2024/01/09 06:03:51;;;;;;;13.05;6.38;;;-3.80;99.90;;;;;;6279030;22;20011;-81
2024/01/09 06:06:57;;;;;;;13.17;5.93;;;-4.20;99.90;;;;;;6273230;22;19999;-81
2024/01/09 06:09:39;;;;;;;11.07;5.80;;;-3.90;99.90;;;;;;6303806;22;19992;-80
2024/01/09 06:12:56;;;;;;;15.53;6.63;;;-4.10;99.90;;;;;;6249460;22;20004;-81
2024/01/09 06:15:50;;;;;;;14.40;5.83;;;-4.10;99.90;;;;;;6295446;22;20022;-83
2024/01/09 06:19:06;;;;;;;11.33;5.67;;;-3.00;99.90;;;;;;6277656;22;19996;-83
2024/01/09 06:25:54;;;;;;;12.83;5.83;;;-3.80;99.90;;;;;;6152180;23;20020;-82
2024/01/09 06:31:15;;;;;;;10.03;4.90;;;-3.80;99.90;;;;;;6254528;22;20020;-79
2024/01/09 06:33:52;;;;;;;14.35;5.30;;;-3.60;99.90;;;;;;6252567;22;20001;-80
2024/01/09 06:50:31;;;;;;;12.53;5.30;;;-3.70;99.90;;;;;;6285880;22;20076;-83
2024/01/09 06:53:12;;;;;;;11.77;5.28;;;-3.70;99.90;;;;;;6277179;22;20007;-83
2024/01/09 06:56:11;;;;;;;11.97;5.77;;;-3.80;99.90;;;;;;6274099;22;20007;-82
2024/01/09 07:12:13;;;;;;;13.23;5.37;;;;;;;;;;6232404;22;20030;-80
2024/01/09 07:14:41;;;;;;;10.57;3.87;;;;;;;;;;6295022;22;20014;-81
2024/01/09 07:17:11;;;;;;;12.00;5.50;;;;;;;;;;6250328;22;20082;-81
2024/01/09 07:19:45;;;;;;;11.40;4.75;;;;;;;;;;6274984;22;20011;-81
2024/01/09 07:22:24;;;;;;;13.57;6.27;;;-3.70;99.90;;;;;;6301603;22;19984;-81
2024/01/09 07:24:59;;;;;;;12.83;5.87;;;;;;;;;;6302958;22;20026;-81
2024/01/09 07:46:20;;;;;;;13.27;5.23;;;-3.90;99.90;;;;;;6242544;22;20064;-81
2024/01/09 07:52:01;;;;;;;13.83;5.73;;;;;;;;;;6232302;22;20079;-80
2024/01/09 07:54:28;;;;;;;11.47;4.87;;;;;;;;;;6224981;23;20011;-79
2024/01/09 08:05:23;;;;;;;13.40;6.00;;;;;;;;;;6198940;22;20853;-79
2024/01/09 08:08:18;;;;;;;10.93;4.40;;;;;;;;;;6207788;23;20104;-83
2024/01/09 08:30:44;;;;;;;9.97;4.03;;;-5.20;99.90;;;;;;6103699;23;20022;-80
2024/01/09 08:33:28;;;;;;;10.18;4.78;;;;;;;;;;6117682;23;20059;-80
2024/01/09 08:35:54;;;;;;;9.87;4.63;;;;;;;;;;6118209;23;20010;-79
2024/01/09 08:38:20;;;;;;;14.43;6.30;;;;;;;;;;6198855;23;20088;-80
2024/01/09 08:40:52;;;;;;;11.73;5.57;;;;;;;;;;6212657;23;20092;-79
2024/01/09 09:04:53;;;;;;;15.10;7.07;;;-2.90;99.90;;;;;;6123584;21;4766557;-81
2024/01/09 09:07:19;;;;;;;15.18;6.43;;;;;;;;;;6303139;22;20158;-80
2024/01/09 09:09:46;;;;;;;11.60;5.63;;;;;;;;;;6303361;22;20000;-82
2024/01/09 09:12:13;;;;;;;11.83;4.77;;;;;;;;;;6303599;22;20011;-81
2024/01/09 09:14:43;;;;;;;12.07;6.17;;;-3.00;99.90;;;;;;6296359;22;20013;-81
2024/01/09 09:17:10;;;;;;;16.77;5.87;;;-3.30;99.90;;;;;;6302593;22;20027;-81
2024/01/09 09:19:36;;;;;;;15.50;4.97;;;-2.90;99.90;;;;;;6303865;22;20014;-80
2024/01/09 09:22:07;;;;;;;12.87;5.30;;;-3.00;99.90;;;;;;6302535;22;19999;-81
2024/01/09 09:24:34;;;;;;;10.38;5.05;;;-2.90;99.90;;;;;;6303297;22;20014;-81
2024/01/09 09:27:16;;;;;;;11.83;5.43;;;-4.20;99.90;;;;;;6304193;22;20027;-81
2024/01/09 09:29:42;;;;;;;9.03;4.47;;;-3.30;99.90;;;;;;6303682;22;20094;-81
2024/01/09 09:32:08;;;;;;;10.20;5.37;;;-2.30;99.90;;;;;;6304394;22;20033;-82
2024/01/09 09:34:34;;;;;;;14.43;6.17;;;-2.60;99.90;;;;;;6305018;22;20000;-82
2024/01/09 09:37:02;;;;;;;11.53;5.53;;;-2.80;99.90;;;;;;6305440;22;20014;-81
2024/01/09 09:39:37;;;;;;;10.17;5.20;;;-2.80;99.90;;;;;;6306541;22;19987;-81
2024/01/09 09:42:13;;;;;;;13.17;5.93;;;-3.80;99.90;;;;;;6309602;22;20010;-81
2024/01/09 09:44:39;;;;;;;11.93;5.77;;;-3.30;99.90;;;;;;6303025;22;20014;-81
2024/01/09 09:47:08;;;;;;;11.57;4.97;;;-2.70;99.90;;;;;;6299174;22;20026;-81
2024/01/09 09:49:37;;;;;;;13.63;4.93;;;-2.60;99.90;;;;;;6298449;22;20004;-80
2024/01/09 09:52:04;;;;;;;14.37;6.40;;;-1.20;99.90;;;;;;6300765;22;20018;-81
2024/01/09 09:54:31;;;;;;;13.63;5.90;;;-3.80;99.90;;;;;;6302860;22;20000;-81
2024/01/09 09:56:57;;;;;;;16.60;6.27;;;-1.60;99.90;;;;;;6305167;22;20000;-82
2024/01/09 09:59:22;;;;;;;10.85;5.15;;;0.00;99.90;;;;;;6302246;22;19999;-81
2024/01/09 10:01:50;;;;;;;12.27;5.03;;;-0.90;99.90;;;;;;6299123;22;20035;-81
2024/01/09 10:04:31;;;;;;;14.10;6.13;;;-3.20;99.90;;;;;;6295206;22;20012;-81
2024/01/09 10:07:05;;;;;;;15.47;6.03;;;-1.30;99.90;;;;;;6295563;22;20436;-82
2024/01/09 10:09:58;;;;;;;13.32;5.93;;;-2.80;99.90;;;;;;6248034;22;20094;-81
2024/01/09 10:12:25;;;;;;;12.40;5.47;;;-2.80;99.90;;;;;;6290480;22;20019;-81
2024/01/09 10:15:11;;;;;;;13.27;5.70;;;-2.70;99.90;;;;;;6274561;22;20021;-81
2024/01/09 10:17:44;;;;;;;12.85;5.85;;;-2.90;99.90;;;;;;6304449;22;20023;-81
2024/01/09 10:20:37;;;;;;;12.75;5.57;;;-2.60;99.90;;;;;;6301657;22;20028;-81
2024/01/09 10:23:46;;;;;;;13.57;5.68;;;-2.60;99.90;;;;;;6300799;22;20000;-82
2024/01/09 10:26:23;;;;;;;13.82;5.85;;;-2.50;99.90;;;;;;6275997;22;20064;-82
2024/01/09 10:28:59;;;;;;;13.52;6.32;;;-2.60;99.90;;;;;;6278121;22;20010;-81
2024/01/09 10:31:40;;;;;;;14.65;5.90;;;-3.50;99.90;;;;;;6304900;22;20064;-82
2024/01/09 10:34:21;;;;;;;16.03;6.53;;;-2.50;99.90;;;;;;6274883;22;20062;-82
2024/01/09 10:37:31;;;;;;;11.98;5.47;;;-2.50;99.90;;;;;;6298144;22;19996;-80
2024/01/09 10:40:58;;;;;;;10.25;5.20;;;-4.30;99.90;;;;;;6295965;22;20030;-81
2024/01/09 10:43:34;;;;;;;15.18;5.93;;;-2.40;99.90;;;;;;6304531;22;20037;-82
2024/01/09 10:46:12;;;;;;;16.38;6.22;;;-1.80;99.90;;;;;;6304043;22;20047;-81
2024/01/09 10:48:41;;;;;;;15.30;6.97;;;-2.10;99.90;;;;;;6277398;22;20003;-80
2024/01/09 10:51:20;;;;;;;10.55;5.47;;;-2.20;99.90;;;;;;6227593;22;20000;-81
2024/01/09 10:53:59;;;;;;;15.57;6.60;;;-1.80;99.60;;;;;;6303065;22;20034;-81
2024/01/09 10:56:25;;;;;;;14.80;5.93;;;;;;;;;;6302925;22;19996;-82
2024/01/09 10:58:59;;;;;;;15.23;5.70;;;-1.70;99.50;;;;;;6304539;22;20007;-81
2024/01/09 11:01:31;;;;;;;14.48;6.40;;;;;;;;;;6304468;22;20201;-82
2024/01/09 11:04:34;;;;;;;14.45;6.05;;;-1.70;99.30;;;;;;6304046;22;20067;-80
2024/01/09 11:07:03;;;;;;;11.05;5.85;;;-2.20;99.30;;;;;;6303060;22;20103;-82
2024/01/09 11:09:34;;;;;;;12.65;6.20;;;-1.80;99.40;;;;;;6223242;22;20023;-81
2024/01/09 11:12:00;;;;;;;12.77;5.65;;;-3.10;99.60;;;;;;6194377;23;20009;-79
2024/01/09 11:14:28;;;;;;;15.32;5.95;;;-1.60;99.30;;;;;;6222276;23;20431;-78
2024/01/09 11:16:57;;;;;;;12.80;6.22;;;-1.60;98.90;;;;;;6220153;23;20001;-80
2024/01/09 11:19:23;;;;;;;12.95;5.93;;;-1.90;99.00;;;;;;6222360;23;20067;-79
2024/01/09 11:21:50;;;;;;;11.77;5.80;;;0.50;99.80;;;;;;6194307;23;20001;-80
2024/01/09 11:24:27;;;;;;;10.82;5.07;;;-1.50;98.80;;;;;;6195162;23;20391;-80
2024/01/09 11:27:22;;;;;;;16.35;6.85;;;-1.30;98.20;;;;;;6194268;23;20012;-79
2024/01/09 11:29:57;;;;;;;14.35;6.93;;;-0.80;99.30;;;;;;6210574;23;20031;-79
2024/01/09 11:32:30;;;;;;;13.27;5.97;;;-1.50;98.50;;;;;;6200112;23;20005;-79
2024/01/09 11:35:16;;;;;;;15.15;5.85;;;-1.30;98.20;;;;;;6199724;23;20008;-79
2024/01/09 11:37:46;;;;;;;10.63;5.53;;;-1.10;97.80;;;;;;6234794;23;19996;-79
2024/01/09 11:40:13;;;;;;;14.52;6.07;;;-1.10;97.40;;;;;;6235915;23;19996;-79
2024/01/09 11:42:45;;;;;;;13.25;5.65;;;1.40;98.60;;;;;;6221716;22;20529;-80
2024/01/09 11:45:39;;;;;;;13.13;5.82;;;-1.00;97.70;;;;;;6252149;23;20011;-80
2024/01/09 11:48:08;;;;;;;11.40;5.30;;;;;;;;;;6225824;23;20012;-80
2024/01/09 11:50:38;;;;;;;11.90;5.82;;;-1.00;97.10;;;;;;6220052;23;20016;-80
2024/01/09 11:53:12;;;;;;;12.82;5.70;;;-1.00;97.00;;;;;;6222862;23;20034;-80
2024/01/09 11:55:40;;;;;;;11.80;5.30;;;1.00;97.60;;;;;;6228637;23;20020;-81
2024/01/09 11:58:07;;;;;;;14.80;6.20;;;-0.80;97.30;;;;;;6222018;23;20012;-79
2024/01/09 12:00:37;;;;;;;11.05;5.22;;;-0.90;97.50;;;;;;6231899;23;19996;-80
2024/01/09 12:03:07;;;;;;;11.68;5.30;;;-0.90;97.30;;;;;;6234505;22;19992;-80
2024/01/09 12:05:37;;;;;;;13.07;6.38;;;-0.80;97.00;;;;;;6229566;23;20011;-78
2024/01/09 12:08:08;;;;;;;13.43;6.20;;;-0.70;97.00;;;;;;6229600;23;20088;-80
2024/01/09 12:10:35;;;;;;;17.35;6.57;;;-0.70;97.10;;;;;;6225235;23;20087;-80
2024/01/09 12:13:04;;;;;;;11.95;6.07;;;-0.70;96.90;;;;;;6223513;23;20096;-79
2024/01/09 12:15:32;;;;;;;13.02;6.03;;;-0.60;96.70;;;;;;6228457;23;20007;-80
2024/01/09 12:18:05;;;;;;;22.05;6.45;;;-0.60;96.60;;;;;;6264464;22;20036;-78
2024/01/09 16:35:00;;;;;;;10.65;4.70;;;-0.60;94.00;;;;;;6270761;22;20020;-79
2024/01/09 16:40:25;;;;;;;9.93;5.25;;;-0.50;94.30;;;;;;6280734;22;20019;-81
2024/01/09 16:44:39;;;;;;;;;;;;;;;;;;;;;
2024/01/09 16:47:34;;;;;;;12.45;5.22;;;-0.60;94.10;;;;;;6085926;23;20041;-82
2024/01/09 17:00:54;;;;;;;13.73;5.18;;;-0.90;93.90;;;;;;6152095;23;20025;-81
2024/01/09 17:03:51;;;;;;;12.13;5.50;;;-0.50;94.00;;;;;;6124160;23;20077;-82
2024/01/09 17:07:14;;;;;;;12.15;5.78;;;-0.40;94.50;;;;;;6139952;23;20002;-82
2024/01/09 17:09:43;;;;;;;13.15;6.20;;;-0.40;94.20;;;;;;6137769;23;20006;-80
2024/01/09 17:12:56;;;;;;;8.85;4.97;;;-0.60;94.40;;;;;;6120859;23;20014;-81
2024/01/09 17:15:56;;;;;;;10.27;4.45;;;-0.80;94.00;;;;;;6261588;23;20443;-81
2024/01/09 17:19:27;;;;;;;10.70;4.93;;;-0.70;94.10;;;;;;6259885;23;20026;-82
2024/01/09 17:22:26;;;;;;;11.05;4.80;;;-0.80;94.00;;;;;;6263294;23;20023;-80
2024/01/09 17:25:10;;;;;;;10.88;5.25;;;-0.60;94.50;;;;;;6260244;22;20006;-81
2024/01/09 17:28:08;;;;;;;10.35;5.18;;;-0.60;94.20;;;;;;6261130;22;20100;-82
2024/01/09 17:31:13;;;;;;;14.98;5.43;;;-0.60;94.40;;;;;;6259816;23;20046;-81
2024/01/09 17:33:53;;;;;;;10.07;4.95;;;-0.60;94.30;;;;;;6226714;23;20012;-81
2024/01/09 17:36:43;;;;;;;9.85;5.35;;;-1.80;94.30;;;;;;6255892;22;20016;-81
2024/01/09 17:39:37;;;;;;;12.63;5.30;;;-0.60;95.10;;;;;;6233274;23;20050;-82
2024/01/09 17:42:11;;;;;;;10.30;5.18;;;-1.90;94.10;;;;;;6245645;22;19989;-82
2024/01/09 17:44:50;;;;;;;12.27;5.53;;;-0.60;94.50;;;;;;6234011;23;20000;-81
2024/01/09 17:47:29;;;;;;;10.30;4.78;;;-1.10;94.30;;;;;;6235857;23;20007;-83
2024/01/09 17:49:59;;;;;;;10.20;5.57;;;-0.60;94.70;;;;;;6238992;23;20032;-81
2024/01/09 17:52:54;;;;;;;10.82;5.30;;;-0.80;94.60;;;;;;6229676;23;20001;-81
2024/01/09 17:55:46;;;;;;;13.75;5.57;;;-0.50;94.50;;;;;;6235829;23;20005;-79
2024/01/09 17:58:37;;;;;;;9.93;4.78;;;-0.60;94.50;;;;;;6234389;23;20483;-80
2024/01/09 18:01:07;;;;;;;12.02;5.28;;;-0.70;94.60;;;;;;6229624;23;20320;-80
2024/01/09 18:03:54;;;;;;;12.52;5.20;;;-0.90;94.90;;;;;;6230063;23;20012;-80
2024/01/09 18:06:31;;;;;;;10.02;4.57;;;-0.60;94.60;;;;;;6220833;23;20099;-79
2024/01/09 18:09:29;;;;;;;10.85;5.47;;;-0.60;94.80;;;;;;6219585;23;20341;-79
2024/01/09 18:12:06;;;;;;;11.75;5.28;;;-0.60;94.50;;;;;;6195234;23;20009;-79
2024/01/09 18:14:36;;;;;;;13.40;5.53;;;-0.60;94.60;;;;;;6224166;23;20075;-81
2024/01/09 18:17:34;;;;;;;11.95;5.40;;;-0.70;94.50;;;;;;6225198;23;20008;-81
2024/01/09 18:20:28;;;;;;;9.75;5.53;;;-0.70;94.50;;;;;;6226853;23;20024;-80
2024/01/09 18:23:17;;;;;;;11.88;5.20;;;-0.80;94.80;;;;;;6224868;23;20004;-80
2024/01/09 18:26:10;;;;;;;14.20;5.45;;;-0.60;94.70;;;;;;6222333;23;20099;-80
2024/01/09 18:28:48;;;;;;;14.32;6.47;;;-0.80;95.00;;;;;;6221813;23;20032;-81
2024/01/09 18:31:39;;;;;;;13.45;5.53;;;0.50;95.20;;;;;;6221990;23;20104;-81
2024/01/09 18:34:05;;;;;;;;;;;-0.80;94.80;;;;;;6202037;23;20016;-81
2024/01/09 18:36:43;;;;;;;9.27;4.45;;;-1.60;94.90;;;;;;6216978;23;19931;-80
2024/01/09 18:39:28;;;;;;;10.00;4.55;;;-0.10;95.40;;;;;;6229398;23;20066;-80
2024/01/09 18:42:16;;;;;;;11.38;5.10;;;-0.80;94.70;;;;;;6231741;23;20035;-80
2024/01/09 18:45:09;;;;;;;10.50;4.90;;;-1.10;95.20;;;;;;6250786;23;20004;-81
2024/01/09 18:51:13;;;;;;;11.88;4.95;;;-0.90;95.20;;;;;;6049424;23;20011;-81
2024/01/09 18:54:02;;;;;;;11.57;4.85;;;-1.00;95.00;;;;;;6223158;23;20007;-80
2024/01/09 18:56:36;;;;;;;11.60;4.63;;;0.30;96.00;;;;;;6251251;22;20364;-80
2024/01/09 18:59:09;;;;;;;13.82;4.97;;;-0.90;95.10;;;;;;6251367;23;20000;-81
2024/01/09 19:02:05;;;;;;;11.40;5.15;;;-0.80;95.30;;;;;;6255511;23;20007;-81
2024/01/09 19:08:19;;;;;;;9.13;4.50;;;-1.50;95.40;;;;;;6072173;23;20011;-80
2024/01/09 19:10:49;;;;;;;10.65;4.95;;;-1.30;95.00;;;;;;5986802;24;20008;-80
2024/01/09 19:13:46;;;;;;;10.68;4.68;;;-0.90;94.80;;;;;;6071948;23;20475;-81
2024/01/09 19:16:35;;;;;;;9.80;4.82;;;-1.80;95.20;;;;;;5966340;24;20365;-81
2024/01/09 19:19:06;;;;;;;9.52;4.57;;;-2.40;94.70;;;;;;6071611;23;20002;-81
2024/01/09 19:21:33;;;;;;;12.85;5.22;;;-1.10;95.40;;;;;;6069597;23;20026;-81
2024/01/09 19:24:20;;;;;;;11.18;5.15;;;-1.20;95.70;;;;;;6056998;23;20033;-81
2024/01/09 19:26:52;;;;;;;9.32;4.07;;;-1.70;95.40;;;;;;6198516;23;20008;-81
2024/01/09 19:29:42;;;;;;;8.73;4.45;;;-1.20;95.10;;;;;;6189892;23;20009;-80
2024/01/09 19:32:35;;;;;;;10.43;5.25;;;-1.00;95.20;;;;;;6217200;23;20005;-82
2024/01/09 19:39:02;;;;;;;9.05;4.70;;;-1.00;94.90;;;;;;6176106;23;20019;-82
2024/01/09 19:41:41;;;;;;;11.85;5.05;;;-0.60;95.30;;;;;;6161171;23;20322;-81
2024/01/09 19:44:35;;;;;;;9.30;5.00;;;-1.00;95.10;;;;;;6192130;23;20381;-80
2024/01/09 19:47:47;;;;;;;14.98;5.57;;;-1.80;94.90;;;;;;6192854;23;20112;-80
2024/01/09 19:50:36;;;;;;;10.75;4.70;;;-1.70;95.00;;;;;;6190037;23;20013;-79
2024/01/09 19:53:12;;;;;;;11.40;5.50;;;0.00;95.50;;;;;;6194437;23;20393;-82
2024/01/09 19:55:39;;;;;;;12.80;5.70;;;-1.20;94.90;;;;;;6195401;23;20001;-80
2024/01/09 19:58:16;;;;;;;13.00;5.75;;;-1.10;95.50;;;;;;6197728;23;20021;-80
2024/01/09 20:00:52;;;;;;;11.15;5.53;;;-2.60;94.90;;;;;;6185492;23;20013;-79
2024/01/09 20:07:46;;;;;;;13.75;5.35;;;-1.20;95.30;;;;;;6098581;23;20010;-80
2024/01/09 20:10:30;;;;;;;;;;;;;;;;;;;;;
2024/01/09 20:13:12;;;;;;;12.57;5.78;;;0.20;95.10;;;;;;6159258;23;20061;-80
2024/01/09 20:16:34;;;;;;;12.85;5.03;;;-1.10;94.80;;;;;;6189911;23;20426;-79
2024/01/09 20:19:05;;;;;;;13.07;5.55;;;-1.20;94.80;;;;;;6190610;23;20001;-81
2024/01/09 20:21:42;;;;;;;13.70;4.80;;;-1.30;94.90;;;;;;6189452;23;20329;-81
2024/01/09 20:27:50;;;;;;;11.50;5.30;;;-2.20;94.70;;;;;;6127031;23;20017;-80
2024/01/09 20:31:15;;;;;;;12.18;5.03;;;-0.90;94.50;;;;;;6188468;23;20009;-80
2024/01/09 20:34:05;;;;;;;13.82;6.07;;;-0.90;94.60;;;;;;6191863;23;20356;-80
2024/01/09 20:37:21;;;;;;;11.85;5.15;;;-1.00;94.60;;;;;;6188294;23;20434;-82
2024/01/09 20:40:42;;;;;;;;;;;;;;;;;;;;;
2024/01/09 20:51:24;;;;;;;12.95;5.20;;;-1.20;94.70;;;;;;6041522;23;20007;-80
2024/01/09 20:54:24;;;;;;;10.63;5.18;;;-1.80;94.70;;;;;;6067190;23;20007;-82
2024/01/09 21:00:25;;;;;;;12.20;5.20;;;-0.90;94.20;;;;;;6105798;23;20017;-82
2024/01/09 21:03:27;;;;;;;11.48;4.95;;;-1.80;94.10;;;;;;6100068;23;20011;-80
2024/01/09 21:06:17;;;;;;;12.07;5.72;;;-1.10;94.50;;;;;;6103389;23;20007;-80
2024/01/09 21:08:45;;;;;;;10.07;4.85;;;-1.20;94.30;;;;;;6103629;23;20127;-80
2024/01/09 21:11:41;;;;;;;11.02;5.47;;;-1.60;94.10;;;;;;6079140;23;20402;-81
2024/01/09 21:14:24;;;;;;;10.52;5.50;;;-0.70;94.20;;;;;;6073012;23;20006;-80
2024/01/09 21:17:00;;;;;;;13.20;5.50;;;-1.10;94.10;;;;;;6073194;23;20095;-80
2024/01/09 21:20:05;;;;;;;13.43;5.47;;;-1.00;94.10;;;;;;6072074;23;20014;-80
2024/01/09 21:24:15;;;;;;;;;;;;;;;;;;;;;
2024/01/09 21:26:35;;;;;;;14.55;5.18;;;-1.10;94.40;;;;;;6089768;23;20030;-80
2024/01/09 21:29:03;;;;;;;11.82;6.05;;;-1.00;94.10;;;;;;6189180;23;20348;-81
2024/01/09 21:31:33;;;;;;;11.82;5.07;;;-1.10;94.10;;;;;;6162056;23;20040;-81
2024/01/09 21:34:12;;;;;;;10.15;4.93;;;-1.10;94.20;;;;;;6186046;23;20024;-80
2024/01/09 21:37:40;;;;;;;9.68;4.57;;;-1.10;94.00;;;;;;6188887;23;20008;-80
2024/01/09 21:40:32;;;;;;;12.80;5.40;;;-1.10;94.00;;;;;;6118100;23;20001;-80
2024/01/09 21:43:03;;;;;;;14.65;5.85;;;-1.10;94.20;;;;;;6218210;23;20361;-80
2024/01/09 21:45:37;;;;;;;12.20;5.28;;;-1.20;94.30;;;;;;6184928;23;20013;-81
2024/01/09 21:48:53;;;;;;;16.70;6.55;;;-2.00;94.50;;;;;;6202937;23;20005;-79
2024/01/09 21:51:52;;;;;;;;;;;;;;;;;;;;;
2024/01/09 21:54:42;;;;;;;17.20;6.75;;;-0.60;94.90;;;;;;6209782;23;20009;-80
2024/01/09 21:57:15;;;;;;;16.55;6.72;;;-1.20;94.60;;;;;;6214551;23;20005;-81
2024/01/09 22:00:20;;;;;;;13.83;5.53;;;-1.20;94.30;;;;;;6190741;23;20012;-80
2024/01/09 22:03:00;;;;;;;13.68;6.30;;;-1.10;94.10;;;;;;6215886;23;20463;-80
2024/01/09 22:05:33;;;;;;;15.15;6.35;;;-0.30;94.70;;;;;;6214916;23;20032;-80
2024/01/09 22:08:10;;;;;;;13.00;5.55;;;-1.10;94.20;;;;;;6220829;23;20008;-79
2024/01/09 22:11:19;;;;;;;11.70;5.47;;;-1.40;94.00;;;;;;6196014;23;20091;-79
2024/01/09 22:13:47;;;;;;;11.15;5.18;;;-1.10;94.60;;;;;;6220710;23;20004;-79